Terminal Aerodrome Forecast
Issued by NWS Lake Charles, LA

Home | Current Version | Previous Version | Text Only | Print | Product List | Glossary On
Versions: 1 2 3 4 5 6 7 8 9 10 11 12 13 14 15 16 17 18
755
FTUS44 KLCH 240520
TAFLCH
TAF
KLCH 240520Z 2406/2506 VRB03KT P6SM SKC
     FM240700 VRB03KT 4SM BR SKC
     FM241400 07006KT P6SM FEW035
     FM242000 12008KT P6SM VCTS SCT045CB
     FM250200 VRB03KT P6SM SCT250=

USA.gov is the U.S. government's official web portal to all federal, state and local government web resources and services.